Lake Lincoln, Indiana
Current Conditions -  °F | °C
As of 4:35 PM on Saturday 25 Oct 2014 (Local Time) from KHNB Reporting Station
Clear Clear  
Wind Chill: 75°   Ceiling: Unl
Heat Index: 75°   Visibility: 10mi
Dew Point: 55°   Wind: 7mph
Humidity: 50%   Direction: 330°NNW
Pressure: 29.98"   Gusts: NA
Location:  38.1283°N, 86.9862°W
Report Text: KHNB 252135Z AUTO 33006KT 10SM CLR 24/13 A2998 RMK AO1
Loading
Personal Weather Stations






























Interactive Weather Map
Tropical Storm Tracking
New forecast layout! Learn more

10-Day Weather Forecast

Advertisements
Track Severe Weather on mobile